14.8C
пасмурно
пасмурно
Дата и времяТемператураДавление, мм рт.ст.Влажность, %Осадки
МинимумМаксимум
25.07.2024 17:0014.57C14.6C76049пасмурно
25.07.2024 20:0014.02C14.2C75951пасмурно
25.07.2024 23:0012.81C12.81C75956пасмурно
26.07.2024 02:0011.59C11.59C75960пасмурно
26.07.2024 05:0011.16C11.16C75964пасмурно
26.07.2024 08:0012.7C12.7C75959пасмурно
26.07.2024 11:0014.17C14.17C75853пасмурно
26.07.2024 14:0016.3C16.3C75846пасмурно
26.07.2024 17:0017.98C17.98C75743пасмурно
26.07.2024 20:0017.25C17.25C75754переменная облачность
26.07.2024 23:0011.45C11.45C75872переменная облачность
27.07.2024 02:009.11C9.11C75984облачно с прояснениями
27.07.2024 05:009.78C9.78C75982облачно с прояснениями
27.07.2024 08:0014.37C14.37C75964облачно с прояснениями
27.07.2024 11:0018.14C18.14C75953пасмурно
27.07.2024 14:0020.46C20.46C75947облачно с прояснениями
27.07.2024 17:0019.39C19.39C75957облачно с прояснениями
27.07.2024 20:0016.57C16.57C75973пасмурно
27.07.2024 23:0013.4C13.4C75985пасмурно
28.07.2024 02:0013.38C13.38C75988пасмурно
28.07.2024 05:0013.24C13.24C75989пасмурно
28.07.2024 08:0015.64C15.64C75978пасмурно
28.07.2024 11:0017.54C17.54C75870пасмурно
28.07.2024 14:0019.62C19.62C75764пасмурно
28.07.2024 17:0021.4C21.4C75653пасмурно
28.07.2024 20:0019.61C19.61C75657небольшая облачность
28.07.2024 23:0016.31C16.31C75672небольшая облачность
29.07.2024 02:0015.08C15.08C75679облачно с прояснениями
29.07.2024 05:0015.05C15.05C75674облачно с прояснениями
29.07.2024 08:0017.5C17.5C75669пасмурно
29.07.2024 11:0021.74C21.74C75553пасмурно
29.07.2024 14:0023.53C23.53C75445облачно с прояснениями
29.07.2024 17:0023.24C23.24C75443облачно с прояснениями
29.07.2024 20:0021.2C21.2C75350облачно с прояснениями
29.07.2024 23:0017.72C17.72C75353переменная облачность
30.07.2024 02:0015.22C15.22C75362ясно
30.07.2024 05:0014.47C14.47C75365ясно
30.07.2024 08:0017.61C17.61C75356ясно
30.07.2024 11:0020.51C20.51C75350ясно
30.07.2024 14:0021.65C21.65C75251ясно
Дата и время наблюдения: 25.07.2024 14:48:01